createdAt,value
2022-11-23T00:00:42.487Z,8.82
2022-11-23T00:03:14.096Z,6.25
2022-11-23T00:05:41.271Z,5.50
2022-11-23T00:08:08.485Z,5.35
2022-11-23T00:10:35.652Z,7.93
2022-11-23T00:13:03.051Z,10.30
2022-11-23T00:15:30.240Z,8.85
2022-11-23T00:17:57.414Z,9.32
2022-11-23T00:20:24.582Z,10.73
2022-11-23T00:22:51.835Z,8.48
2022-11-23T00:25:19.139Z,23.58
2022-11-23T00:27:46.305Z,6.07
2022-11-23T00:30:13.720Z,14.07
2022-11-23T00:32:40.869Z,9.35
2022-11-23T00:35:08.245Z,5.93
2022-11-23T00:37:35.391Z,9.90
2022-11-23T00:40:02.677Z,11.55
2022-11-23T00:42:32.594Z,13.70
2022-11-23T00:45:04.082Z,8.18
2022-11-23T00:47:31.242Z,10.88
2022-11-23T00:49:58.403Z,8.05
2022-11-23T00:52:25.581Z,16.58
2022-11-23T00:54:52.723Z,3.75
2022-11-23T00:57:19.985Z,8.32
2022-11-23T00:59:47.136Z,8.60
2022-11-23T01:02:14.336Z,7.22
2022-11-23T01:04:41.517Z,5.57
2022-11-23T01:07:08.694Z,8.48
2022-11-23T01:09:35.904Z,12.27
2022-11-23T01:12:03.052Z,10.10
2022-11-23T01:14:30.216Z,12.75
2022-11-23T01:16:57.366Z,8.60
2022-11-23T01:19:25.229Z,7.80
2022-11-23T01:21:52.452Z,7.65
2022-11-23T01:24:21.693Z,8.57
2022-11-23T01:26:52.783Z,11.68
2022-11-23T01:29:20.050Z,9.38
2022-11-23T01:31:47.248Z,8.90
2022-11-23T01:34:14.806Z,8.85
2022-11-23T01:36:42.144Z,6.47
2022-11-23T01:39:09.312Z,3.25
2022-11-23T01:41:38.234Z,6.55
2022-11-23T01:44:43.886Z,10.13
2022-11-23T01:47:11.405Z,5.45
2022-11-23T01:49:43.081Z,10.65
2022-11-23T01:52:21.592Z,6.83
2022-11-23T01:54:50.155Z,13.32
2022-11-23T01:57:19.920Z,10.02
2022-11-23T01:59:47.832Z,2.40
2022-11-23T02:02:15.889Z,7.03
2022-11-23T02:04:44.574Z,3.72
2022-11-23T02:07:12.192Z,9.05
2022-11-23T02:09:39.968Z,6.55
2022-11-23T02:12:13.936Z,7.97
2022-11-23T02:14:41.880Z,12.82
2022-11-23T02:17:09.474Z,5.53
2022-11-23T02:19:42.816Z,5.57
2022-11-23T02:22:14.062Z,9.65
2022-11-23T02:24:46.050Z,4.70
2022-11-23T02:27:14.081Z,6.35
2022-11-23T02:29:41.617Z,6.35
2022-11-23T02:32:09.132Z,8.68
2022-11-23T02:34:36.333Z,6.47
2022-11-23T02:37:03.508Z,4.95
2022-11-23T02:39:36.955Z,6.82
2022-11-23T02:42:05.115Z,3.75
2022-11-23T02:44:36.973Z,5.68
2022-11-23T02:47:05.014Z,7.13
2022-11-23T02:49:32.406Z,2.03
2022-11-23T02:51:59.805Z,4.13
2022-11-23T02:54:27.179Z,5.47
2022-11-23T02:56:54.487Z,5.88
2022-11-23T02:59:21.883Z,8.50
2022-11-23T03:01:49.110Z,5.28
2022-11-23T03:04:16.299Z,9.93
2022-11-23T03:06:43.708Z,12.35
2022-11-23T03:09:10.982Z,13.07
2022-11-23T03:11:38.309Z,22.08
2022-11-23T03:14:05.524Z,9.77
2022-11-23T03:16:33.801Z,12.20
2022-11-23T03:19:01.149Z,25.25
2022-11-23T03:21:28.362Z,21.80
2022-11-23T03:23:56.002Z,8.73
2022-11-23T03:26:23.156Z,21.02
2022-11-23T03:28:50.307Z,8.82
2022-11-23T03:31:17.463Z,16.13
2022-11-23T03:33:44.638Z,18.58
2022-11-23T03:36:11.859Z,22.95
2022-11-23T03:38:39.091Z,22.50
2022-11-23T03:41:06.275Z,21.05
2022-11-23T03:43:33.404Z,26.92
2022-11-23T03:46:00.592Z,18.60
2022-11-23T03:48:27.893Z,23.80
2022-11-23T03:50:55.068Z,21.05
2022-11-23T03:53:22.332Z,15.35
2022-11-23T03:55:49.538Z,15.50
2022-11-23T03:58:16.885Z,13.55
2022-11-23T04:00:44.121Z,15.02
2022-11-23T04:03:11.393Z,22.13
2022-11-23T04:05:38.611Z,12.07
2022-11-23T04:08:05.939Z,10.32
2022-11-23T04:10:33.101Z,14.23
2022-11-23T04:13:00.348Z,12.35
2022-11-23T04:15:27.550Z,8.32
2022-11-23T04:17:55.542Z,19.17
2022-11-23T04:20:22.748Z,10.07
2022-11-23T04:22:49.944Z,15.90
2022-11-23T04:25:17.264Z,16.55
2022-11-23T04:27:44.467Z,21.10
2022-11-23T04:30:11.884Z,18.67
2022-11-23T04:32:39.161Z,3.92
2022-11-23T04:35:06.472Z,13.52
2022-11-23T04:37:33.688Z,11.10
2022-11-23T04:40:00.867Z,7.70
2022-11-23T04:42:28.292Z,8.05
2022-11-23T04:44:57.316Z,7.35
2022-11-23T04:47:25.241Z,8.95
2022-11-23T04:49:52.389Z,9.15
2022-11-23T04:52:19.571Z,19.10
2022-11-23T04:54:46.729Z,8.65
2022-11-23T04:57:13.887Z,8.80
2022-11-23T04:59:41.044Z,19.42
2022-11-23T05:02:08.171Z,17.58
2022-11-23T05:04:36.089Z,9.93
2022-11-23T05:07:03.245Z,11.77
2022-11-23T05:09:30.749Z,18.33
2022-11-23T05:11:59.105Z,13.48
2022-11-23T05:14:26.334Z,16.50
2022-11-23T05:16:53.488Z,15.43
2022-11-23T05:19:20.657Z,8.93
2022-11-23T05:21:47.802Z,13.80
2022-11-23T05:24:14.953Z,9.90
2022-11-23T05:26:42.121Z,10.77
2022-11-23T05:29:09.295Z,14.35
2022-11-23T05:31:36.430Z,9.20
2022-11-23T05:34:04.536Z,11.10
2022-11-23T05:36:31.688Z,11.68
2022-11-23T05:38:59.381Z,16.08
2022-11-23T05:41:26.559Z,20.65
2022-11-23T05:43:53.773Z,7.18
2022-11-23T05:46:21.188Z,13.15
2022-11-23T05:48:48.325Z,17.45
2022-11-23T05:51:15.490Z,10.77
2022-11-23T05:53:42.640Z,20.50
2022-11-23T05:56:09.910Z,26.33
2022-11-23T05:58:37.178Z,17.27
2022-11-23T06:01:04.332Z,20.58
2022-11-23T06:03:31.632Z,20.55
2022-11-23T06:05:58.880Z,19.88
2022-11-23T06:08:26.040Z,16.88
2022-11-23T06:10:53.208Z,10.70
2022-11-23T06:13:20.387Z,12.95
2022-11-23T06:15:47.610Z,17.63
2022-11-23T06:18:14.797Z,14.10
2022-11-23T06:20:41.955Z,15.13
2022-11-23T06:23:09.109Z,9.60
2022-11-23T06:25:38.968Z,10.23
2022-11-23T06:28:06.314Z,20.50
2022-11-23T06:30:33.549Z,24.10
2022-11-23T06:33:03.902Z,15.88
2022-11-23T06:35:31.147Z,12.32
2022-11-23T06:37:58.333Z,21.23
2022-11-23T06:40:25.517Z,16.13
2022-11-23T06:42:54.093Z,28.95
2022-11-23T06:45:21.304Z,13.73
2022-11-23T06:47:48.476Z,17.40
2022-11-23T06:50:15.845Z,9.88
2022-11-23T06:52:42.986Z,12.25
2022-11-23T06:55:10.419Z,12.77
2022-11-23T06:57:37.597Z,16.30
2022-11-23T07:00:05.379Z,22.45
2022-11-23T07:02:32.569Z,13.43
2022-11-23T07:04:59.824Z,14.45
2022-11-23T07:07:27.528Z,6.40
2022-11-23T07:09:57.501Z,17.67
2022-11-23T07:12:25.261Z,8.55
2022-11-23T07:14:52.477Z,12.50
2022-11-23T07:17:19.649Z,17.02
2022-11-23T07:19:46.815Z,8.75
2022-11-23T07:22:14.000Z,19.98
2022-11-23T07:24:46.405Z,19.70
2022-11-23T07:27:14.003Z,15.40
2022-11-23T07:29:41.443Z,15.55
2022-11-23T07:32:08.644Z,9.43
2022-11-23T07:34:35.842Z,5.38
2022-11-23T07:37:04.572Z,13.55
2022-11-23T07:39:55.680Z,6.65
2022-11-23T07:42:39.749Z,4.13
2022-11-23T07:45:06.417Z,8.77
2022-11-23T07:47:33.772Z,17.70
2022-11-23T07:50:00.993Z,7.82
2022-11-23T07:52:28.215Z,12.38
2022-11-23T07:54:55.405Z,11.20
2022-11-23T07:57:22.553Z,5.65
2022-11-23T07:59:49.709Z,12.27
2022-11-23T08:02:17.316Z,6.38
2022-11-23T08:04:44.604Z,15.50
2022-11-23T08:07:12.103Z,10.55
2022-11-23T08:09:39.348Z,7.28
2022-11-23T08:12:06.726Z,7.07
2022-11-23T08:14:34.374Z,11.48
2022-11-23T08:17:01.949Z,9.52
2022-11-23T08:19:29.118Z,16.33
2022-11-23T08:21:56.256Z,6.07
2022-11-23T08:24:23.424Z,12.35
2022-11-23T08:26:50.608Z,13.68
2022-11-23T08:29:17.772Z,11.40
2022-11-23T08:31:45.010Z,8.10
2022-11-23T08:34:12.290Z,9.65
2022-11-23T08:36:39.491Z,14.05
2022-11-23T08:39:07.526Z,9.55
2022-11-23T08:41:34.858Z,9.60
2022-11-23T08:44:02.185Z,9.82
2022-11-23T08:46:29.375Z,10.52
2022-11-23T08:48:56.517Z,11.20
2022-11-23T08:51:23.725Z,46.25
2022-11-23T08:53:51.125Z,12.00
2022-11-23T08:56:18.397Z,6.72
2022-11-23T08:58:45.556Z,11.98
2022-11-23T09:01:14.837Z,11.00
2022-11-23T09:03:42.468Z,14.40
2022-11-23T09:06:09.936Z,14.10
2022-11-23T09:08:37.508Z,23.67
2022-11-23T09:11:06.277Z,10.48
2022-11-23T09:13:35.434Z,13.50
2022-11-23T09:16:03.070Z,19.50
2022-11-23T09:18:34.220Z,19.10
2022-11-23T09:21:03.298Z,11.63
2022-11-23T09:23:30.576Z,25.08
2022-11-23T09:26:01.444Z,29.42
2022-11-23T09:28:28.653Z,39.20
2022-11-23T09:30:56.234Z,24.17
2022-11-23T09:33:23.973Z,38.33
2022-11-23T09:35:58.069Z,29.35
2022-11-23T09:38:44.520Z,24.92
2022-11-23T09:41:31.022Z,37.70
2022-11-23T09:44:01.408Z,35.78
2022-11-23T09:46:58.029Z,21.60
2022-11-23T09:49:32.939Z,25.50
2022-11-23T09:52:00.215Z,33.92
2022-11-23T09:54:33.143Z,21.13
2022-11-23T09:57:02.151Z,19.05
2022-11-23T09:59:32.544Z,19.50
2022-11-23T10:02:00.819Z,24.35
2022-11-23T10:04:30.788Z,16.10
2022-11-23T10:06:59.851Z,17.13
2022-11-23T10:09:53.206Z,23.83
2022-11-23T10:12:37.230Z,16.25
2022-11-23T10:15:15.552Z,12.95
2022-11-23T10:17:53.762Z,15.40
2022-11-23T10:20:36.007Z,12.90
2022-11-23T10:23:05.395Z,10.52
2022-11-23T10:25:40.301Z,15.90
2022-11-23T10:28:14.660Z,14.63
2022-11-23T10:30:42.103Z,15.75
2022-11-23T10:33:09.374Z,13.25
2022-11-23T10:35:38.314Z,19.05
2022-11-23T10:38:18.316Z,13.60
2022-11-23T10:40:52.467Z,13.35
2022-11-23T10:43:23.378Z,10.75
2022-11-23T10:45:50.540Z,19.02
2022-11-23T10:48:38.024Z,12.85
2022-11-23T10:51:22.069Z,11.88
2022-11-23T10:53:59.541Z,19.27
2022-11-23T10:56:31.223Z,14.52
2022-11-23T10:58:58.504Z,8.60
2022-11-23T11:01:26.891Z,11.73
2022-11-23T11:03:54.973Z,19.52
2022-11-23T11:06:27.052Z,8.95
2022-11-23T11:08:54.213Z,6.50
2022-11-23T11:11:33.116Z,9.52
2022-11-23T11:14:07.787Z,12.63
2022-11-23T11:16:36.220Z,17.05
2022-11-23T11:19:22.060Z,10.32
2022-11-23T11:21:49.604Z,13.25
2022-11-23T11:24:38.097Z,18.80
2022-11-23T11:27:07.757Z,12.43
2022-11-23T11:29:39.824Z,16.40
2022-11-23T11:32:12.695Z,19.05
2022-11-23T11:34:46.344Z,15.80
2022-11-23T11:37:26.853Z,25.85
2022-11-23T11:39:59.614Z,10.65
2022-11-23T11:42:38.028Z,19.90
2022-11-23T11:45:07.601Z,12.18
2022-11-23T11:47:42.594Z,13.38
2022-11-23T11:50:30.033Z,22.42
2022-11-23T11:53:08.240Z,13.40
2022-11-23T11:55:54.224Z,14.65
2022-11-23T11:58:23.351Z,15.10
2022-11-23T12:00:50.640Z,18.15
2022-11-23T12:03:22.506Z,19.15
2022-11-23T12:05:53.579Z,19.45
2022-11-23T12:08:31.398Z,26.38
2022-11-23T12:11:00.214Z,13.70
2022-11-23T12:13:32.810Z,14.45
2022-11-23T12:16:03.101Z,17.25
2022-11-23T12:18:40.109Z,15.68
2022-11-23T12:21:33.616Z,23.13
2022-11-23T12:24:19.604Z,18.50
2022-11-23T12:26:55.880Z,17.35
2022-11-23T12:29:25.192Z,14.95
2022-11-23T12:32:00.085Z,20.23
2022-11-23T12:34:31.878Z,25.10
2022-11-23T12:37:02.181Z,18.00
2022-11-23T12:39:46.928Z,16.70
2022-11-23T12:42:24.642Z,18.95
2022-11-23T12:45:00.818Z,24.08
2022-11-23T12:47:37.377Z,18.42
2022-11-23T12:50:18.392Z,17.80
2022-11-23T12:53:00.765Z,20.15
2022-11-23T12:55:39.340Z,24.08
2022-11-23T12:58:12.334Z,25.65
2022-11-23T13:00:59.800Z,22.73
2022-11-23T13:03:47.293Z,33.17
2022-11-23T13:06:14.510Z,31.83
2022-11-23T13:09:00.588Z,19.15
2022-11-23T13:11:37.045Z,36.58
2022-11-23T13:14:23.457Z,25.58
2022-11-23T13:16:54.600Z,32.65
2022-11-23T13:19:33.678Z,28.92
2022-11-23T13:22:01.197Z,31.67
2022-11-23T13:24:29.741Z,28.70
2022-11-23T13:27:15.327Z,31.10
2022-11-23T13:29:51.804Z,28.48
2022-11-23T13:32:46.273Z,22.55
2022-11-23T13:35:19.637Z,27.77
2022-11-23T13:37:53.019Z,18.73
2022-11-23T13:40:23.244Z,16.45
2022-11-23T13:42:52.213Z,24.35
2022-11-23T13:45:24.820Z,25.02
2022-11-23T13:50:19.988Z,17.65
2022-11-23T13:52:50.698Z,21.15
2022-11-23T13:55:31.748Z,19.00
2022-11-23T13:58:17.733Z,20.10
2022-11-23T14:00:48.196Z,14.63
2022-11-23T14:03:34.419Z,23.67
2022-11-23T14:06:02.325Z,35.65
2022-11-23T14:08:29.857Z,38.25
2022-11-23T14:10:58.242Z,28.73
2022-11-23T14:13:29.179Z,24.60
2022-11-23T14:16:01.921Z,23.27
2022-11-23T14:18:44.528Z,15.82
2022-11-23T14:21:32.675Z,28.85
2022-11-23T14:24:15.538Z,15.75
2022-11-23T14:27:12.184Z,24.33
2022-11-23T14:29:52.188Z,18.52
2022-11-23T14:32:25.204Z,23.75
2022-11-23T14:35:01.819Z,32.03
2022-11-23T14:37:47.904Z,22.77
2022-11-23T14:40:27.230Z,31.27
2022-11-23T14:42:55.509Z,25.92
2022-11-23T14:45:23.919Z,24.70
2022-11-23T14:47:51.209Z,26.92
2022-11-23T14:50:22.360Z,19.67
2022-11-23T14:52:49.818Z,17.23
2022-11-23T14:55:21.440Z,24.45
2022-11-23T14:57:49.195Z,35.35
2022-11-23T15:00:28.059Z,31.67
2022-11-23T15:02:56.537Z,29.60
2022-11-23T15:05:31.749Z,28.45
2022-11-23T15:08:02.020Z,29.15
2022-11-23T15:10:37.563Z,13.93
2022-11-23T15:13:16.774Z,15.65
2022-11-23T15:15:45.732Z,27.77
2022-11-23T15:18:12.909Z,16.90
2022-11-23T15:20:42.789Z,20.15
2022-11-23T15:23:23.390Z,16.65
2022-11-23T15:26:01.454Z,18.40
2022-11-23T15:28:29.783Z,23.50
2022-11-23T15:30:58.831Z,20.38
2022-11-23T15:33:26.497Z,28.10
2022-11-23T15:35:54.683Z,28.15
2022-11-23T15:38:23.856Z,24.52
2022-11-23T15:40:51.685Z,23.08
2022-11-23T15:43:19.639Z,23.75
2022-11-23T15:45:46.928Z,27.15
2022-11-23T15:48:16.597Z,22.77
2022-11-23T15:50:48.426Z,28.80
2022-11-23T15:53:15.696Z,19.90
2022-11-23T15:55:43.509Z,24.92
2022-11-23T15:58:11.252Z,26.98
2022-11-23T16:00:38.469Z,28.27
2022-11-23T16:03:41.916Z,28.60
2022-11-23T16:06:11.737Z,14.50
2022-11-23T16:08:40.811Z,15.23
2022-11-23T16:11:19.936Z,21.10
2022-11-23T16:13:47.224Z,15.85
2022-11-23T16:16:21.926Z,15.95
2022-11-23T16:18:56.683Z,28.05
2022-11-23T16:21:25.496Z,16.70
2022-11-23T16:23:54.601Z,21.75
2022-11-23T16:26:22.817Z,17.13
2022-11-23T16:28:50.949Z,14.57
2022-11-23T16:31:29.213Z,19.00
2022-11-23T16:33:56.662Z,19.50
2022-11-23T16:36:27.178Z,11.63
2022-11-23T16:38:54.546Z,15.20
2022-11-23T16:41:21.699Z,22.52
2022-11-23T16:43:53.789Z,20.58
2022-11-23T16:46:21.187Z,20.70
2022-11-23T16:48:48.561Z,23.42
2022-11-23T16:51:15.939Z,20.15
2022-11-23T16:54:12.014Z,30.92
2022-11-23T16:56:31.224Z,21.58
2022-11-23T16:58:58.395Z,27.17
2022-11-23T17:01:26.862Z,18.90
2022-11-23T17:03:54.530Z,26.95
2022-11-23T17:06:24.742Z,24.50
2022-11-23T17:08:58.481Z,22.88
2022-11-23T17:11:28.217Z,27.38
2022-11-23T17:13:56.257Z,17.15
2022-11-23T17:16:25.049Z,14.48
2022-11-23T17:18:52.237Z,21.00
2022-11-23T17:21:20.407Z,19.55
2022-11-23T17:23:47.742Z,18.17
2022-11-23T17:26:20.785Z,32.00
2022-11-23T17:28:47.968Z,17.10
2022-11-23T17:31:15.368Z,22.88
2022-11-23T17:33:42.564Z,26.73
2022-11-23T17:36:09.901Z,23.35
2022-11-23T17:38:38.459Z,31.92
2022-11-23T17:41:05.848Z,29.08
2022-11-23T17:43:33.282Z,19.65
2022-11-23T17:46:00.512Z,30.20
2022-11-23T17:48:28.367Z,10.52
2022-11-23T17:50:55.537Z,20.00
2022-11-23T17:53:25.348Z,22.20
2022-11-23T17:55:52.822Z,20.08
2022-11-23T17:58:19.979Z,26.33
2022-11-23T18:00:47.195Z,23.15
2022-11-23T18:03:14.411Z,30.50
2022-11-23T18:05:41.657Z,30.10
2022-11-23T18:08:08.805Z,32.35
2022-11-23T18:10:36.184Z,27.77
2022-11-23T18:13:03.431Z,32.97
2022-11-23T18:15:30.734Z,21.73
2022-11-23T18:18:04.237Z,21.42
2022-11-23T18:20:31.913Z,33.70
2022-11-23T18:22:59.088Z,31.45
2022-11-23T18:25:26.340Z,27.30
2022-11-23T18:27:54.376Z,40.47
2022-11-23T18:30:21.643Z,24.08
2022-11-23T18:32:48.955Z,31.55
2022-11-23T18:35:16.202Z,36.10
2022-11-23T18:37:43.368Z,28.52
2022-11-23T18:40:10.785Z,15.98
2022-11-23T18:42:37.952Z,28.38
2022-11-23T18:45:05.428Z,30.65
2022-11-23T18:47:32.601Z,13.77
2022-11-23T18:50:04.839Z,13.00
2022-11-23T18:52:33.489Z,13.20
2022-11-23T18:55:00.740Z,10.25
2022-11-23T18:57:27.907Z,14.20
2022-11-23T18:59:58.925Z,15.88
2022-11-23T19:02:26.851Z,20.00
2022-11-23T19:04:53.997Z,14.52
2022-11-23T19:07:26.563Z,16.92
2022-11-23T19:09:54.168Z,14.77
2022-11-23T19:12:21.351Z,25.52
2022-11-23T19:14:49.826Z,16.75
2022-11-23T19:17:17.429Z,21.20
2022-11-23T19:19:44.600Z,13.98
2022-11-23T19:22:11.797Z,29.92
2022-11-23T19:24:40.192Z,17.35
2022-11-23T19:27:07.384Z,12.52
2022-11-23T19:29:34.821Z,25.77
2022-11-23T19:32:02.218Z,22.70
2022-11-23T19:34:29.479Z,24.42
2022-11-23T19:36:56.669Z,20.23
2022-11-23T19:39:23.992Z,20.77
2022-11-23T19:41:51.239Z,12.68
2022-11-23T19:44:18.407Z,19.52
2022-11-23T19:46:45.663Z,17.63
2022-11-23T19:49:12.903Z,22.30
2022-11-23T19:51:40.132Z,31.42
2022-11-23T19:54:09.582Z,19.83
2022-11-23T19:56:39.993Z,24.67
2022-11-23T19:59:07.147Z,24.75
2022-11-23T20:01:36.300Z,27.48
2022-11-23T20:04:09.680Z,26.17
2022-11-23T20:06:38.667Z,30.95
2022-11-23T20:09:09.900Z,26.08
2022-11-23T20:11:38.759Z,20.13
2022-11-23T20:14:06.245Z,18.50
2022-11-23T20:16:33.827Z,24.63
2022-11-23T20:19:02.548Z,19.42
2022-11-23T20:21:30.470Z,30.45
2022-11-23T20:24:04.342Z,16.75
2022-11-23T20:26:33.302Z,16.30
2022-11-23T20:29:01.208Z,16.17
2022-11-23T20:31:29.670Z,23.45
2022-11-23T20:33:57.135Z,29.58
2022-11-23T20:36:24.342Z,37.78
2022-11-23T20:38:52.341Z,16.38
2022-11-23T20:41:24.320Z,23.85
2022-11-23T20:43:53.227Z,23.00
2022-11-23T20:46:45.543Z,24.52
2022-11-23T20:49:07.708Z,28.38
2022-11-23T20:51:34.982Z,30.38
2022-11-23T20:54:02.442Z,33.50
2022-11-23T20:56:30.220Z,21.05
2022-11-23T20:58:59.827Z,19.42
2022-11-23T21:01:27.904Z,29.30
2022-11-23T21:03:59.853Z,31.25
2022-11-23T21:06:27.540Z,25.17
2022-11-23T21:08:55.145Z,20.17
2022-11-23T21:11:44.959Z,18.83
2022-11-23T21:14:22.510Z,25.52
2022-11-23T21:16:58.291Z,21.40
2022-11-23T21:19:33.268Z,26.90
2022-11-23T21:22:03.457Z,21.67
2022-11-23T21:24:30.756Z,22.42
2022-11-23T21:26:57.979Z,23.15
2022-11-23T21:29:26.156Z,22.92
2022-11-23T21:31:53.583Z,17.15
2022-11-23T21:34:25.832Z,20.25
2022-11-23T21:36:54.036Z,13.32
2022-11-23T21:39:21.734Z,11.48
2022-11-23T21:41:53.563Z,15.30
2022-11-23T21:44:22.087Z,13.23
2022-11-23T21:46:49.505Z,22.33
2022-11-23T21:49:16.805Z,13.02
2022-11-23T21:51:45.533Z,30.73
2022-11-23T21:54:15.991Z,31.55
2022-11-23T21:56:43.876Z,16.25
2022-11-23T21:59:11.134Z,19.85
2022-11-23T22:01:38.729Z,13.48
2022-11-23T22:04:08.950Z,8.70
2022-11-23T22:06:36.682Z,12.18
2022-11-23T22:09:05.072Z,22.45
2022-11-23T22:11:33.662Z,21.52
2022-11-23T22:14:05.317Z,17.75
2022-11-23T22:16:34.021Z,12.73
2022-11-23T22:19:01.726Z,22.05
2022-11-23T22:21:29.962Z,18.38
2022-11-23T22:23:57.260Z,25.05
2022-11-23T22:26:24.619Z,15.07
2022-11-23T22:28:52.367Z,17.38
2022-11-23T22:31:20.466Z,14.20
2022-11-23T22:33:48.283Z,20.92
2022-11-23T22:36:22.545Z,28.13
2022-11-23T22:39:00.808Z,28.17
2022-11-23T22:41:28.987Z,18.50
2022-11-23T22:43:56.547Z,25.67
2022-11-23T22:46:24.366Z,18.23
2022-11-23T22:48:52.414Z,27.08
2022-11-23T22:51:20.943Z,31.13
2022-11-23T22:53:48.148Z,21.75
2022-11-23T22:56:19.724Z,15.02
2022-11-23T22:58:47.803Z,18.73
2022-11-23T23:01:19.542Z,22.70
2022-11-23T23:03:47.032Z,15.00
2022-11-23T23:06:18.865Z,20.33
2022-11-23T23:08:46.758Z,18.50
2022-11-23T23:11:14.534Z,10.55
2022-11-23T23:13:42.167Z,11.98
2022-11-23T23:16:11.829Z,10.98
2022-11-23T23:18:39.190Z,16.45
2022-11-23T23:21:10.840Z,9.73
2022-11-23T23:23:38.507Z,10.53
2022-11-23T23:26:06.055Z,12.60
2022-11-23T23:28:33.528Z,8.38
2022-11-23T23:31:01.330Z,14.73
2022-11-23T23:33:29.648Z,13.80
2022-11-23T23:35:57.303Z,12.68
2022-11-23T23:38:27.628Z,14.30
2022-11-23T23:40:58.069Z,11.02
2022-11-23T23:43:25.236Z,10.07
2022-11-23T23:45:52.732Z,8.50
2022-11-23T23:48:19.920Z,21.13
2022-11-23T23:50:47.063Z,16.15
2022-11-23T23:53:14.249Z,17.23
2022-11-23T23:55:41.515Z,16.33
2022-11-23T23:58:08.668Z,4.28
